createdAt,value
2022-11-16T10:38:28.488Z,7.78
2022-11-16T10:41:05.764Z,7.87
2022-11-16T10:43:33.628Z,8.01
2022-11-16T10:46:44.758Z,7.96
2022-11-16T10:49:30.087Z,8.21
2022-11-16T10:51:57.651Z,7.98
2022-11-16T10:54:24.339Z,8.12
2022-11-16T10:57:13.937Z,7.96
2022-11-16T10:59:44.821Z,7.76
2022-11-16T11:02:36.647Z,7.75
2022-11-16T11:05:16.995Z,7.74
2022-11-16T11:08:04.257Z,7.93
2022-11-16T11:10:32.389Z,7.85
2022-11-16T11:13:10.150Z,7.98
2022-11-16T11:15:42.316Z,8.21
2022-11-16T11:18:24.359Z,8.01
2022-11-16T11:21:17.599Z,8.10
2022-11-16T11:23:49.159Z,7.97
2022-11-16T11:26:36.160Z,8.08
2022-11-16T11:29:15.684Z,8.01
2022-11-16T11:31:46.667Z,7.99
2022-11-16T11:34:21.819Z,7.91
2022-11-16T11:36:54.154Z,7.97
2022-11-16T11:39:20.749Z,7.90
2022-11-16T11:42:13.683Z,7.95
2022-11-16T11:44:49.598Z,7.90
2022-11-16T11:50:48.603Z,7.78
2022-11-16T11:53:40.777Z,7.95
2022-11-16T11:56:12.085Z,7.95
2022-11-16T11:58:40.287Z,7.87
2022-11-16T12:01:45.402Z,7.98
2022-11-16T12:04:46.078Z,7.97
2022-11-16T12:07:22.022Z,8.01
2022-11-16T12:10:15.022Z,7.92
2022-11-16T12:13:20.317Z,8.00
2022-11-16T12:16:05.232Z,8.06
2022-11-16T12:19:14.503Z,8.12
2022-11-16T12:21:50.314Z,8.13
2022-11-16T12:24:41.482Z,8.05
2022-11-16T12:27:08.149Z,8.07
2022-11-16T12:29:56.957Z,8.10
2022-11-16T12:32:47.603Z,8.01
2022-11-16T12:35:38.814Z,8.02
2022-11-16T12:38:21.754Z,8.04
2022-11-16T12:41:11.787Z,8.00
2022-11-16T12:43:57.181Z,8.05
2022-11-16T12:47:10.467Z,8.08
2022-11-16T12:49:46.194Z,8.16
2022-11-16T12:52:31.743Z,8.10
2022-11-16T12:57:55.648Z,8.28
2022-11-16T13:00:22.410Z,8.19
2022-11-16T13:03:00.654Z,8.30
2022-11-16T13:05:45.634Z,8.25
2022-11-16T13:08:25.208Z,8.15
2022-11-16T13:10:57.008Z,8.03
2022-11-16T13:13:36.482Z,8.05
2022-11-16T13:16:17.374Z,7.83
2022-11-16T13:18:44.709Z,7.81
2022-11-16T13:21:20.653Z,7.82
2022-11-16T13:23:59.637Z,7.85
2022-11-16T13:26:40.838Z,7.72
2022-11-16T13:29:34.196Z,7.62
2022-11-16T13:32:22.878Z,7.59
2022-11-16T13:34:50.624Z,7.62
2022-11-16T13:37:39.411Z,7.46
2022-11-16T13:40:06.371Z,7.43
2022-11-16T13:42:35.953Z,7.42
2022-11-16T13:45:17.241Z,7.26
2022-11-16T13:48:21.380Z,7.12
2022-11-16T13:51:11.861Z,7.09
2022-11-16T13:56:49.968Z,7.07
2022-11-16T13:59:24.379Z,6.88
2022-11-16T14:02:03.487Z,6.80
2022-11-16T14:04:42.639Z,6.78
2022-11-16T14:07:30.164Z,6.77
2022-11-16T14:09:57.408Z,6.74
2022-11-16T14:12:52.829Z,6.62
2022-11-16T14:15:24.552Z,6.66
2022-11-16T14:18:01.381Z,6.62
2022-11-16T14:20:43.721Z,6.59
2022-11-16T14:23:30.979Z,6.60
2022-11-16T14:26:12.479Z,6.63
2022-11-16T14:28:45.553Z,6.69
2022-11-16T14:31:54.896Z,6.63
2022-11-16T14:34:52.806Z,6.57
2022-11-16T14:37:25.853Z,6.62
2022-11-16T14:39:58.852Z,6.55
2022-11-16T14:42:38.272Z,6.55
2022-11-16T14:45:24.820Z,6.47
2022-11-16T14:47:53.436Z,6.65
2022-11-16T14:50:23.398Z,6.53
2022-11-16T14:52:55.144Z,6.55
2022-11-16T14:55:25.632Z,6.40
2022-11-16T15:02:20.256Z,6.33
2022-11-16T15:04:47.760Z,6.39
2022-11-16T15:07:15.990Z,6.29
2022-11-16T15:09:48.864Z,6.17
2022-11-16T15:12:52.864Z,6.22
2022-11-16T15:15:24.063Z,6.26
2022-11-16T15:26:23.967Z,6.19
2022-11-16T15:28:52.314Z,6.18
2022-11-16T15:31:21.187Z,6.12
2022-11-16T15:33:51.792Z,6.13
2022-11-16T15:40:30.077Z,6.05
2022-11-16T15:43:01.165Z,6.02
2022-11-16T15:45:30.529Z,6.01
2022-11-16T15:48:00.762Z,6.00
2022-11-16T15:50:28.745Z,6.02
2022-11-16T15:52:56.178Z,5.96
2022-11-16T15:55:24.511Z,6.14
2022-11-16T16:13:40.761Z,5.95
2022-11-16T16:23:26.529Z,6.02
2022-11-16T16:25:54.190Z,6.04
2022-11-16T16:28:22.776Z,5.95
2022-11-16T16:38:24.005Z,5.85
2022-11-16T16:40:51.091Z,5.81
2022-11-16T16:43:21.070Z,5.90
2022-11-16T16:45:48.127Z,5.88
2022-11-16T16:54:19.304Z,5.88
2022-11-16T16:59:43.572Z,5.95
2022-11-16T17:02:21.725Z,5.87
2022-11-16T17:05:10.606Z,5.76
2022-11-16T17:11:33.033Z,5.79
2022-11-16T17:15:19.383Z,5.72
2022-11-16T17:19:07.150Z,5.86
2022-11-16T17:21:45.925Z,5.77
2022-11-16T17:24:45.286Z,5.73
2022-11-16T17:30:00.960Z,5.65
2022-11-16T17:32:54.140Z,5.64
2022-11-16T17:35:34.449Z,5.62
2022-11-16T17:38:04.208Z,5.62
2022-11-16T17:40:40.023Z,5.64
2022-11-16T17:43:25.981Z,5.65
2022-11-16T17:46:13.717Z,5.62
2022-11-16T17:52:45.936Z,5.55
2022-11-16T17:56:14.014Z,5.44
2022-11-16T17:59:29.474Z,5.44
2022-11-16T18:03:02.125Z,5.44
2022-11-16T18:05:44.517Z,5.43
2022-11-16T18:08:26.611Z,5.39
2022-11-16T18:14:07.810Z,5.31
2022-11-16T18:16:58.196Z,5.14
2022-11-16T18:19:30.698Z,5.17
2022-11-16T18:30:49.262Z,5.14
2022-11-16T18:33:40.755Z,5.01
2022-11-16T18:36:25.579Z,4.99
2022-11-16T18:38:59.524Z,4.94
2022-11-16T18:47:45.378Z,4.87
2022-11-16T18:50:20.048Z,4.87
2022-11-16T18:53:00.094Z,4.87
2022-11-16T18:55:32.496Z,4.78
2022-11-16T18:58:22.893Z,4.85
2022-11-16T19:01:15.419Z,4.80
2022-11-16T19:03:48.853Z,4.79
2022-11-16T19:06:18.094Z,4.79
2022-11-16T19:08:54.957Z,4.68
2022-11-16T19:11:26.456Z,4.72
2022-11-16T19:14:05.057Z,4.78
2022-11-16T19:16:35.243Z,4.76
2022-11-16T19:19:02.903Z,4.75
2022-11-16T19:21:30.411Z,4.73
2022-11-16T19:24:01.072Z,4.61
2022-11-16T19:26:28.260Z,4.69
2022-11-16T19:28:57.337Z,4.61
2022-11-16T19:34:19.162Z,4.57
2022-11-16T19:36:46.340Z,4.68
2022-11-16T19:39:13.461Z,4.63
2022-11-16T19:41:40.401Z,4.58
2022-11-16T19:44:10.530Z,4.58
2022-11-16T19:46:39.436Z,4.67
2022-11-16T19:49:19.778Z,4.56
2022-11-16T19:51:53.879Z,4.61
2022-11-16T19:54:24.087Z,4.56
2022-11-16T19:57:03.882Z,4.63
2022-11-16T19:59:42.016Z,4.60
2022-11-16T20:02:11.994Z,4.59
2022-11-16T20:04:43.419Z,4.44
2022-11-16T20:07:19.537Z,4.40
2022-11-16T20:09:53.463Z,4.45
2022-11-16T20:12:51.719Z,4.45
2022-11-16T20:15:24.911Z,4.48
2022-11-16T20:21:38.566Z,4.45
2022-11-16T21:03:55.296Z,4.21
2022-11-16T21:21:05.474Z,4.30
2022-11-16T21:23:38.621Z,4.26
2022-11-16T21:39:39.913Z,4.13
2022-11-16T21:51:34.103Z,3.98
2022-11-16T21:54:08.816Z,4.05
2022-11-16T22:12:52.671Z,3.90
